createdAt,value
2022-11-24T00:00:13.701Z,0.00
2022-11-24T00:01:13.705Z,0.00
2022-11-24T00:02:13.868Z,0.00
2022-11-24T00:03:13.826Z,0.00
2022-11-24T00:04:13.714Z,0.00
2022-11-24T00:05:13.715Z,0.00
2022-11-24T00:06:13.711Z,0.00
2022-11-24T00:07:13.784Z,0.00
2022-11-24T00:08:13.716Z,0.00
2022-11-24T00:09:13.715Z,0.00
2022-11-24T00:10:13.719Z,0.00
2022-11-24T00:11:13.727Z,0.00
2022-11-24T00:12:13.722Z,0.00
2022-11-24T00:13:13.725Z,0.00
2022-11-24T00:14:13.725Z,0.00
2022-11-24T00:15:13.726Z,0.00
2022-11-24T00:16:13.814Z,0.00
2022-11-24T00:17:13.736Z,0.00
2022-11-24T00:18:13.763Z,0.00
2022-11-24T00:19:19.400Z,0.00
2022-11-24T00:20:13.737Z,0.00
2022-11-24T00:21:13.736Z,0.00
2022-11-24T00:22:13.739Z,0.00
2022-11-24T00:23:13.743Z,0.00
2022-11-24T00:24:13.753Z,0.00
2022-11-24T00:25:13.743Z,0.00
2022-11-24T00:26:13.750Z,0.00
2022-11-24T00:27:13.747Z,0.00
2022-11-24T00:28:13.758Z,0.00
2022-11-24T00:29:13.759Z,0.00
2022-11-24T00:30:13.761Z,0.00
2022-11-24T00:31:16.954Z,0.00
2022-11-24T00:32:13.765Z,0.00
2022-11-24T00:33:13.768Z,0.00
2022-11-24T00:34:13.791Z,0.00
2022-11-24T00:35:13.771Z,0.00
2022-11-24T00:36:13.765Z,0.00
2022-11-24T00:37:13.767Z,0.00
2022-11-24T00:38:13.775Z,0.00
2022-11-24T00:39:13.773Z,0.00
2022-11-24T00:40:13.773Z,0.00
2022-11-24T00:41:13.775Z,0.00
2022-11-24T00:42:13.783Z,0.00
2022-11-24T00:43:13.786Z,0.00
2022-11-24T00:44:13.789Z,0.00
2022-11-24T00:45:14.391Z,0.00
2022-11-24T00:46:13.948Z,0.00
2022-11-24T00:47:13.986Z,0.00
2022-11-24T00:48:13.787Z,0.00
2022-11-24T00:49:13.795Z,0.00
2022-11-24T00:50:13.820Z,0.00
2022-11-24T00:51:13.791Z,0.00
2022-11-24T00:52:13.796Z,0.00
2022-11-24T00:53:13.801Z,0.00
2022-11-24T00:54:13.805Z,0.00
2022-11-24T00:55:13.809Z,0.00
2022-11-24T00:56:13.804Z,0.00
2022-11-24T00:57:13.808Z,0.00
2022-11-24T00:58:13.812Z,0.00
2022-11-24T00:59:13.813Z,0.00
2022-11-24T01:00:13.808Z,0.00
2022-11-24T01:01:13.873Z,0.00
2022-11-24T01:02:13.840Z,0.00
2022-11-24T01:03:13.813Z,0.00
2022-11-24T01:04:13.828Z,0.00
2022-11-24T01:05:13.823Z,0.00
2022-11-24T01:06:13.841Z,0.00
2022-11-24T01:07:13.847Z,0.00
2022-11-24T01:08:13.831Z,0.00
2022-11-24T01:09:13.832Z,0.00
2022-11-24T01:10:13.828Z,0.00
2022-11-24T01:11:13.827Z,0.00
2022-11-24T01:12:13.830Z,0.00
2022-11-24T01:13:13.841Z,0.00
2022-11-24T01:14:13.839Z,0.00
2022-11-24T01:15:13.843Z,0.00
2022-11-24T01:16:13.924Z,0.00
2022-11-24T01:17:13.847Z,0.00
2022-11-24T01:18:13.840Z,0.00
2022-11-24T01:19:13.850Z,0.00
2022-11-24T01:20:13.847Z,0.00
2022-11-24T01:21:13.845Z,0.00
2022-11-24T01:22:13.871Z,0.00
2022-11-24T01:23:13.856Z,0.00
2022-11-24T01:24:13.859Z,0.00
2022-11-24T01:25:13.862Z,0.00
2022-11-24T01:26:13.861Z,0.00
2022-11-24T01:27:13.865Z,0.00
2022-11-24T01:28:13.860Z,0.00
2022-11-24T01:29:13.862Z,0.00
2022-11-24T01:30:13.862Z,0.00
2022-11-24T01:31:13.945Z,0.00
2022-11-24T01:32:13.875Z,0.00
2022-11-24T01:33:13.867Z,0.00
2022-11-24T01:34:13.872Z,0.00
2022-11-24T01:35:13.886Z,0.00
2022-11-24T01:36:13.882Z,0.00
2022-11-24T01:37:13.882Z,0.00
2022-11-24T01:38:13.909Z,0.00
2022-11-24T01:39:13.879Z,0.00
2022-11-24T01:40:13.881Z,0.00
2022-11-24T01:41:13.893Z,0.00
2022-11-24T01:42:13.892Z,0.00
2022-11-24T01:43:13.886Z,0.00
2022-11-24T01:44:13.891Z,0.00
2022-11-24T01:45:13.897Z,0.00
2022-11-24T01:46:13.958Z,0.00
2022-11-24T01:47:13.897Z,0.00
2022-11-24T01:48:13.896Z,0.00
2022-11-24T01:49:13.899Z,0.00
2022-11-24T01:50:13.901Z,0.00
2022-11-24T01:51:13.911Z,0.00
2022-11-24T01:52:13.911Z,0.00
2022-11-24T01:53:13.911Z,0.00
2022-11-24T01:54:13.929Z,0.00
2022-11-24T01:55:13.918Z,0.00
2022-11-24T01:56:13.917Z,0.00
2022-11-24T01:57:13.913Z,0.00
2022-11-24T01:58:13.923Z,0.00
2022-11-24T01:59:13.925Z,0.00
2022-11-24T02:00:13.938Z,0.00
2022-11-24T02:01:14.064Z,0.00
2022-11-24T02:02:14.020Z,0.00
2022-11-24T02:03:13.933Z,0.00
2022-11-24T02:04:13.929Z,0.00
2022-11-24T02:05:13.945Z,0.00
2022-11-24T02:06:13.943Z,0.00
2022-11-24T02:07:13.987Z,0.00
2022-11-24T02:08:13.944Z,0.00
2022-11-24T02:09:13.936Z,0.00
2022-11-24T02:10:13.968Z,0.00
2022-11-24T02:11:13.949Z,0.00
2022-11-24T02:12:13.951Z,0.00
2022-11-24T02:13:13.954Z,0.00
2022-11-24T02:14:13.949Z,0.00
2022-11-24T02:15:13.949Z,0.00
2022-11-24T02:16:14.011Z,0.00
2022-11-24T02:17:13.959Z,0.00
2022-11-24T02:18:13.957Z,0.00
2022-11-24T02:19:13.955Z,0.00
2022-11-24T02:20:13.965Z,0.00
2022-11-24T02:21:13.967Z,0.00
2022-11-24T02:22:13.970Z,0.00
2022-11-24T02:23:13.964Z,0.00
2022-11-24T02:24:13.980Z,0.00
2022-11-24T02:25:13.979Z,0.00
2022-11-24T02:26:13.996Z,0.00
2022-11-24T02:27:13.975Z,0.00
2022-11-24T02:28:13.981Z,0.00
2022-11-24T02:29:13.976Z,0.00
2022-11-24T02:30:13.976Z,0.00
2022-11-24T02:31:14.045Z,0.00
2022-11-24T02:32:13.980Z,0.00
2022-11-24T02:33:13.983Z,0.00
2022-11-24T02:34:13.991Z,0.00
2022-11-24T02:35:13.994Z,0.00
2022-11-24T02:36:13.995Z,0.00
2022-11-24T02:37:14.000Z,0.00
2022-11-24T02:38:14.000Z,0.00
2022-11-24T02:39:13.994Z,0.00
2022-11-24T02:40:13.997Z,0.00
2022-11-24T02:41:14.000Z,0.00
2022-11-24T02:42:14.022Z,0.00
2022-11-24T02:43:14.012Z,0.00
2022-11-24T02:44:14.006Z,0.00
2022-11-24T02:45:14.014Z,0.00
2022-11-24T02:46:14.076Z,0.00
2022-11-24T02:47:14.017Z,0.00
2022-11-24T02:48:14.013Z,0.00
2022-11-24T02:49:14.020Z,0.00
2022-11-24T02:50:14.027Z,0.00
2022-11-24T02:51:14.029Z,0.00
2022-11-24T02:52:14.029Z,0.00
2022-11-24T02:53:14.030Z,0.00
2022-11-24T02:54:14.026Z,0.00
2022-11-24T02:55:14.034Z,0.00
2022-11-24T02:56:14.030Z,0.00
2022-11-24T02:57:14.044Z,0.00
2022-11-24T02:58:14.061Z,0.00
2022-11-24T02:59:14.035Z,0.00
2022-11-24T03:00:14.043Z,0.00
2022-11-24T03:01:14.087Z,0.00
2022-11-24T03:02:14.042Z,0.00
2022-11-24T03:03:14.150Z,0.00
2022-11-24T03:04:14.048Z,0.00
2022-11-24T03:05:14.055Z,0.00
2022-11-24T03:06:14.057Z,0.00
2022-11-24T03:07:14.078Z,0.00
2022-11-24T03:08:14.055Z,0.00
2022-11-24T03:09:14.057Z,0.00
2022-11-24T03:10:14.066Z,0.00
2022-11-24T03:11:14.064Z,0.00
2022-11-24T03:12:14.074Z,0.00
2022-11-24T03:13:14.077Z,0.00
2022-11-24T03:14:14.102Z,0.00
2022-11-24T03:15:14.071Z,0.00
2022-11-24T03:16:14.137Z,0.00
2022-11-24T03:17:14.083Z,0.00
2022-11-24T03:18:14.083Z,0.00
2022-11-24T03:19:14.083Z,0.00
2022-11-24T03:20:14.088Z,0.00
2022-11-24T03:21:14.083Z,0.00
2022-11-24T03:22:14.089Z,0.00
2022-11-24T03:23:14.097Z,0.00
2022-11-24T03:24:14.101Z,0.00
2022-11-24T03:25:14.094Z,0.00
2022-11-24T03:26:14.098Z,0.00
2022-11-24T03:27:14.100Z,0.00
2022-11-24T03:28:14.114Z,0.00
2022-11-24T03:29:14.112Z,0.00
2022-11-24T03:30:14.139Z,0.00
2022-11-24T03:31:14.248Z,0.00
2022-11-24T03:32:14.126Z,0.00
2022-11-24T03:33:14.125Z,0.00
2022-11-24T03:34:14.115Z,0.00
2022-11-24T03:35:14.119Z,0.00
2022-11-24T03:36:14.134Z,0.00
2022-11-24T03:37:14.131Z,0.00
2022-11-24T03:38:14.128Z,0.00
2022-11-24T03:39:14.130Z,0.00
2022-11-24T03:40:14.139Z,0.00
2022-11-24T03:41:14.137Z,0.00
2022-11-24T03:42:14.143Z,0.00
2022-11-24T03:43:14.145Z,0.00
2022-11-24T03:44:14.140Z,0.00
2022-11-24T03:45:44.096Z,0.00
2022-11-24T03:46:14.210Z,0.00
2022-11-24T03:47:14.155Z,0.00
2022-11-24T03:48:14.151Z,0.00
2022-11-24T03:49:14.157Z,0.00
2022-11-24T03:50:14.164Z,0.00
2022-11-24T03:51:14.163Z,0.00
2022-11-24T03:52:14.167Z,0.00
2022-11-24T03:53:14.163Z,0.00
2022-11-24T03:54:14.166Z,0.00
2022-11-24T03:55:14.174Z,0.00
2022-11-24T03:56:14.170Z,0.00
2022-11-24T03:57:14.171Z,0.00
2022-11-24T03:58:14.175Z,0.00
2022-11-24T03:59:14.187Z,0.00
2022-11-24T04:00:14.180Z,0.00
2022-11-24T04:01:14.236Z,0.00
2022-11-24T04:02:14.270Z,0.00
2022-11-24T04:03:14.256Z,0.00
2022-11-24T04:04:14.197Z,0.00
2022-11-24T04:05:14.190Z,0.00
2022-11-24T04:06:14.198Z,0.00
2022-11-24T04:07:14.265Z,0.00
2022-11-24T04:08:14.197Z,0.00
2022-11-24T04:09:14.211Z,0.00
2022-11-24T04:10:14.201Z,0.00
2022-11-24T04:11:14.212Z,0.00
2022-11-24T04:12:14.207Z,0.00
2022-11-24T04:13:14.211Z,0.00
2022-11-24T04:14:14.219Z,0.00
2022-11-24T04:15:14.216Z,0.00
2022-11-24T04:16:14.240Z,0.00
2022-11-24T04:17:14.221Z,0.00
2022-11-24T04:18:14.251Z,0.00
2022-11-24T04:19:14.232Z,0.00
2022-11-24T04:20:14.238Z,0.00
2022-11-24T04:21:14.236Z,0.00
2022-11-24T04:22:14.241Z,0.00
2022-11-24T04:23:14.243Z,0.00
2022-11-24T04:24:14.239Z,0.00
2022-11-24T04:25:14.248Z,0.00
2022-11-24T04:26:14.251Z,0.00
2022-11-24T04:27:14.251Z,0.00
2022-11-24T04:28:14.253Z,0.00
2022-11-24T04:29:14.256Z,0.00
2022-11-24T04:30:14.259Z,0.00
2022-11-24T04:31:14.377Z,0.00
2022-11-24T04:32:14.258Z,0.00
2022-11-24T04:33:14.275Z,0.00
2022-11-24T04:34:14.285Z,0.00
2022-11-24T04:35:14.283Z,0.00
2022-11-24T04:36:14.268Z,0.00
2022-11-24T04:37:14.276Z,0.00
2022-11-24T04:38:14.272Z,0.00
2022-11-24T04:39:24.931Z,0.00
2022-11-24T04:40:14.284Z,0.00
2022-11-24T04:41:14.286Z,0.00
2022-11-24T04:42:14.288Z,0.00
2022-11-24T04:43:14.285Z,0.00
2022-11-24T04:44:14.293Z,0.00
2022-11-24T04:45:14.296Z,0.00
2022-11-24T04:46:14.384Z,0.00
2022-11-24T04:47:14.301Z,0.00
2022-11-24T04:48:14.296Z,0.00
2022-11-24T04:49:14.305Z,0.00
2022-11-24T04:50:14.328Z,0.00
2022-11-24T04:51:14.311Z,0.00
2022-11-24T04:52:14.306Z,0.00
2022-11-24T04:53:14.309Z,0.00
2022-11-24T04:54:14.316Z,0.00
2022-11-24T04:55:14.316Z,0.00
2022-11-24T04:56:14.323Z,0.00
2022-11-24T04:57:14.323Z,0.00
2022-11-24T04:58:14.326Z,0.00
2022-11-24T04:59:14.325Z,0.00
2022-11-24T05:00:14.333Z,0.00
2022-11-24T05:01:14.374Z,0.00
2022-11-24T05:02:14.339Z,0.00
2022-11-24T05:03:14.339Z,0.00
2022-11-24T05:04:14.442Z,0.00
2022-11-24T05:05:14.349Z,0.00
2022-11-24T05:06:14.361Z,0.00
2022-11-24T05:07:18.430Z,0.00
2022-11-24T05:08:14.341Z,0.00
2022-11-24T05:09:14.340Z,0.00
2022-11-24T05:10:14.344Z,0.00
2022-11-24T05:11:14.360Z,0.00
2022-11-24T05:12:14.351Z,0.00
2022-11-24T05:13:14.350Z,0.00
2022-11-24T05:14:14.360Z,0.00
2022-11-24T05:15:14.363Z,0.00
2022-11-24T05:16:14.425Z,0.00
2022-11-24T05:17:14.368Z,0.00
2022-11-24T05:18:14.370Z,0.00
2022-11-24T05:19:14.367Z,0.00
2022-11-24T05:20:14.367Z,0.00
2022-11-24T05:21:14.378Z,0.00
2022-11-24T05:22:14.406Z,0.00
2022-11-24T05:23:14.386Z,0.00
2022-11-24T05:24:14.378Z,0.00
2022-11-24T05:25:14.381Z,0.00
2022-11-24T05:26:14.391Z,0.00
2022-11-24T05:27:14.387Z,0.00
2022-11-24T05:28:14.395Z,0.00
2022-11-24T05:29:14.398Z,0.00
2022-11-24T05:30:14.392Z,0.00
2022-11-24T05:31:14.461Z,0.00
2022-11-24T05:32:14.408Z,0.00
2022-11-24T05:33:14.400Z,0.00
2022-11-24T05:34:14.404Z,0.00
2022-11-24T05:35:14.416Z,0.00
2022-11-24T05:36:14.411Z,0.00
2022-11-24T05:37:14.409Z,0.00
2022-11-24T05:38:14.447Z,0.00
2022-11-24T05:39:14.424Z,0.00
2022-11-24T05:40:14.423Z,0.00
2022-11-24T05:41:14.420Z,0.00
2022-11-24T05:42:14.424Z,0.00
2022-11-24T05:43:14.427Z,0.00
2022-11-24T05:44:14.456Z,0.00
2022-11-24T05:45:14.437Z,0.00
2022-11-24T05:46:14.484Z,0.00
2022-11-24T05:47:14.443Z,0.00
2022-11-24T05:48:14.444Z,0.00
2022-11-24T05:49:14.443Z,0.00
2022-11-24T05:50:14.449Z,0.00
2022-11-24T05:51:14.453Z,0.00
2022-11-24T05:52:14.454Z,0.00
2022-11-24T05:53:14.458Z,0.00
2022-11-24T05:54:14.479Z,0.00
2022-11-24T05:55:14.457Z,0.00
2022-11-24T05:56:14.465Z,0.00
2022-11-24T05:57:14.469Z,0.00
2022-11-24T05:58:14.462Z,0.00
2022-11-24T05:59:14.469Z,0.00
2022-11-24T06:00:14.476Z,0.00
2022-11-24T06:01:14.478Z,0.00
2022-11-24T06:02:14.613Z,0.00
2022-11-24T06:03:14.562Z,0.00
2022-11-24T06:04:14.486Z,0.00
2022-11-24T06:05:14.487Z,0.00
2022-11-24T06:06:14.492Z,0.00
2022-11-24T06:07:14.570Z,0.00
2022-11-24T06:08:14.491Z,0.00
2022-11-24T06:09:14.497Z,0.00
2022-11-24T06:10:14.526Z,0.00
2022-11-24T06:11:14.495Z,0.00
2022-11-24T06:12:14.504Z,0.00
2022-11-24T06:13:14.568Z,0.00
2022-11-24T06:14:14.517Z,0.00
2022-11-24T06:15:14.510Z,0.00
2022-11-24T06:16:14.579Z,0.00
2022-11-24T06:17:14.533Z,4.00
2022-11-24T06:18:14.516Z,0.00
2022-11-24T06:19:14.516Z,4.00
2022-11-24T06:20:14.528Z,4.00
2022-11-24T06:21:14.522Z,4.00
2022-11-24T06:22:14.523Z,4.00
2022-11-24T06:23:14.527Z,8.00
2022-11-24T06:24:14.538Z,8.00
2022-11-24T06:25:14.532Z,8.00
2022-11-24T06:26:14.569Z,16.00
2022-11-24T06:27:14.538Z,16.00
2022-11-24T06:28:14.541Z,20.00
2022-11-24T06:29:14.552Z,24.00
2022-11-24T06:30:14.554Z,24.00
2022-11-24T06:31:14.613Z,32.00
2022-11-24T06:32:14.557Z,40.00
2022-11-24T06:33:14.565Z,40.00
2022-11-24T06:34:14.558Z,40.00
2022-11-24T06:35:14.568Z,44.00
2022-11-24T06:36:14.564Z,48.00
2022-11-24T06:37:14.571Z,52.00
2022-11-24T06:38:14.573Z,56.00
2022-11-24T06:39:14.575Z,60.00
2022-11-24T06:40:14.581Z,68.00
2022-11-24T06:41:14.574Z,80.00
2022-11-24T06:42:14.598Z,88.00
2022-11-24T06:43:14.577Z,100.00
2022-11-24T06:44:14.589Z,100.00
2022-11-24T06:45:14.587Z,104.00
2022-11-24T06:46:14.645Z,100.00
2022-11-24T06:47:14.590Z,96.00
2022-11-24T06:48:14.599Z,96.00
2022-11-24T06:49:14.601Z,100.00
2022-11-24T06:50:14.596Z,108.00
2022-11-24T06:51:14.607Z,120.00
2022-11-24T06:52:14.601Z,136.00
2022-11-24T06:53:14.612Z,152.00
2022-11-24T06:54:14.608Z,176.00
2022-11-24T06:55:14.617Z,192.00
2022-11-24T06:56:16.524Z,196.00
2022-11-24T06:57:14.621Z,208.00
2022-11-24T06:58:14.645Z,216.00
2022-11-24T06:59:14.620Z,216.00
2022-11-24T07:00:14.630Z,228.00
2022-11-24T07:01:14.718Z,232.00
2022-11-24T07:02:14.637Z,248.00
2022-11-24T07:03:14.673Z,264.00
2022-11-24T07:04:14.634Z,268.00
2022-11-24T07:05:14.637Z,268.00
2022-11-24T07:06:14.645Z,280.00
2022-11-24T07:07:14.710Z,296.00
2022-11-24T07:08:17.760Z,312.00
2022-11-24T07:09:14.645Z,316.00
2022-11-24T07:10:14.656Z,332.00
2022-11-24T07:11:14.650Z,360.00
2022-11-24T07:12:14.656Z,388.00
2022-11-24T07:13:14.663Z,424.00
2022-11-24T07:14:14.683Z,468.00
2022-11-24T07:15:14.672Z,500.00
2022-11-24T07:16:14.721Z,500.00
2022-11-24T07:17:14.668Z,492.00
2022-11-24T07:18:14.669Z,512.00
2022-11-24T07:19:15.597Z,556.00
2022-11-24T07:20:14.676Z,620.00
2022-11-24T07:21:14.687Z,668.00
2022-11-24T07:22:14.690Z,692.00
2022-11-24T07:23:14.693Z,724.00
2022-11-24T07:24:14.685Z,824.00
2022-11-24T07:25:14.689Z,876.00
2022-11-24T07:26:14.699Z,908.00
2022-11-24T07:27:14.703Z,908.00
2022-11-24T07:28:14.695Z,872.00
2022-11-24T07:29:14.706Z,884.00
2022-11-24T07:30:14.731Z,888.00
2022-11-24T07:31:14.746Z,904.00
2022-11-24T07:32:14.750Z,880.00
2022-11-24T07:33:14.710Z,796.00
2022-11-24T07:34:14.930Z,748.00
2022-11-24T07:35:14.715Z,792.00
2022-11-24T07:36:14.719Z,916.00
2022-11-24T07:37:14.733Z,1052.00
2022-11-24T07:38:14.731Z,1108.00
2022-11-24T07:39:14.732Z,1100.00
2022-11-24T07:40:14.738Z,1136.00
2022-11-24T07:41:14.731Z,1160.00
2022-11-24T07:42:14.743Z,1196.00
2022-11-24T07:43:19.974Z,1264.00
2022-11-24T07:44:14.747Z,1288.00
2022-11-24T07:45:14.748Z,1256.00
2022-11-24T07:46:14.837Z,1216.00
2022-11-24T07:47:14.746Z,1188.00
2022-11-24T07:48:14.759Z,1180.00
2022-11-24T07:49:14.759Z,1196.00
2022-11-24T07:50:14.769Z,1168.00
2022-11-24T07:51:14.765Z,1148.00
2022-11-24T07:52:14.762Z,1148.00
2022-11-24T07:53:14.770Z,1176.00
2022-11-24T07:54:14.764Z,1208.00
2022-11-24T07:55:14.769Z,1208.00
2022-11-24T07:56:14.771Z,1228.00
2022-11-24T07:57:14.781Z,1252.00
2022-11-24T07:58:14.775Z,1232.00
2022-11-24T07:59:14.779Z,1240.00
2022-11-24T08:00:14.788Z,1280.00
2022-11-24T08:01:14.875Z,1336.00
2022-11-24T08:02:14.806Z,1332.00
2022-11-24T08:03:14.840Z,1372.00
2022-11-24T08:04:14.868Z,1436.00
2022-11-24T08:05:14.803Z,1432.00
2022-11-24T08:06:38.615Z,1516.00
2022-11-24T08:07:14.840Z,1820.00
2022-11-24T08:08:14.803Z,1960.00
2022-11-24T08:09:14.809Z,2000.00
2022-11-24T08:10:14.815Z,2060.00
2022-11-24T08:11:14.819Z,2136.00
2022-11-24T08:12:14.816Z,2220.00
2022-11-24T08:13:14.814Z,2208.00
2022-11-24T08:14:14.826Z,2200.00
2022-11-24T08:15:14.820Z,2296.00
2022-11-24T08:16:14.967Z,2508.00
2022-11-24T08:17:14.826Z,2728.00
2022-11-24T08:18:14.855Z,2924.00
2022-11-24T08:19:14.838Z,3060.00
2022-11-24T08:20:14.843Z,3208.00
2022-11-24T08:21:14.845Z,3528.00
2022-11-24T08:22:14.841Z,3820.00
2022-11-24T08:23:14.860Z,3796.00
2022-11-24T08:24:14.853Z,3464.00
2022-11-24T08:25:14.860Z,3104.00
2022-11-24T08:26:14.853Z,2708.00
2022-11-24T08:27:14.855Z,2688.00
2022-11-24T08:28:14.858Z,2480.00
2022-11-24T08:29:14.862Z,2312.00
2022-11-24T08:30:14.864Z,2568.00
2022-11-24T08:31:14.873Z,2956.00
2022-11-24T08:32:20.452Z,2660.00
2022-11-24T08:33:14.880Z,2388.00
2022-11-24T08:34:14.907Z,2452.00
2022-11-24T08:35:14.937Z,2592.00
2022-11-24T08:36:14.884Z,2664.00
2022-11-24T08:37:14.893Z,2728.00
2022-11-24T08:38:14.898Z,2664.00
2022-11-24T08:39:14.898Z,2604.00
2022-11-24T08:40:14.897Z,2676.00
2022-11-24T08:41:14.913Z,2804.00
2022-11-24T08:42:14.907Z,2780.00
2022-11-24T08:43:14.912Z,2636.00
2022-11-24T08:44:14.908Z,2576.00
2022-11-24T08:45:20.985Z,2404.00
2022-11-24T08:46:14.984Z,2196.00
2022-11-24T08:47:14.918Z,2268.00
2022-11-24T08:48:14.927Z,2616.00
2022-11-24T08:49:14.931Z,2848.00
2022-11-24T08:50:14.954Z,2788.00
2022-11-24T08:51:14.932Z,2620.00
2022-11-24T08:52:14.933Z,2572.00
2022-11-24T08:53:14.937Z,2624.00
2022-11-24T08:54:14.946Z,2628.00
2022-11-24T08:55:14.951Z,2656.00
2022-11-24T08:56:14.946Z,2696.00
2022-11-24T08:57:20.193Z,2620.00
2022-11-24T08:58:14.961Z,2564.00
2022-11-24T08:59:15.079Z,2588.00
2022-11-24T09:00:14.961Z,2612.00
2022-11-24T09:01:15.120Z,2552.00
2022-11-24T09:02:14.969Z,2468.00
2022-11-24T09:03:14.972Z,2556.00
2022-11-24T09:04:15.067Z,2764.00
2022-11-24T09:05:49.579Z,2864.00
2022-11-24T09:06:15.011Z,2728.00
2022-11-24T09:07:15.024Z,2500.00
2022-11-24T09:08:14.989Z,2332.00
2022-11-24T09:09:14.992Z,2256.00
2022-11-24T09:10:14.995Z,2220.00
2022-11-24T09:11:15.004Z,2168.00
2022-11-24T09:12:15.022Z,2148.00
2022-11-24T09:13:15.016Z,2164.00
2022-11-24T09:14:15.014Z,2304.00
2022-11-24T09:15:15.012Z,2564.00
2022-11-24T09:16:15.094Z,2852.00
2022-11-24T09:17:15.102Z,3140.00
2022-11-24T09:18:15.019Z,3492.00
2022-11-24T09:19:15.025Z,3928.00
2022-11-24T09:20:15.036Z,4240.00
2022-11-24T09:21:15.038Z,4328.00
2022-11-24T09:22:15.065Z,4232.00
2022-11-24T09:23:15.039Z,4060.00
2022-11-24T09:24:15.048Z,4028.00
2022-11-24T09:25:15.044Z,4296.00
2022-11-24T09:26:15.055Z,4660.00
2022-11-24T09:27:15.053Z,4824.00
2022-11-24T09:28:15.062Z,4688.00
2022-11-24T09:29:15.066Z,4440.00
2022-11-24T09:30:15.070Z,4316.00
2022-11-24T09:31:15.127Z,4356.00
2022-11-24T09:32:15.069Z,4384.00
2022-11-24T09:33:15.072Z,4432.00
2022-11-24T09:34:15.088Z,4496.00
2022-11-24T09:35:15.081Z,4436.00
2022-11-24T09:36:15.086Z,4416.00
2022-11-24T09:37:15.094Z,4284.00
2022-11-24T09:38:15.114Z,4028.00
2022-11-24T09:39:15.103Z,3848.00
2022-11-24T09:40:15.111Z,3768.00
2022-11-24T09:41:15.140Z,3712.00
2022-11-24T09:42:15.119Z,3664.00
2022-11-24T09:43:15.108Z,3644.00
2022-11-24T09:44:15.119Z,3636.00
2022-11-24T09:45:15.134Z,3612.00
2022-11-24T09:46:15.169Z,3516.00
2022-11-24T09:47:15.123Z,3256.00
2022-11-24T09:48:15.136Z,2876.00
2022-11-24T09:49:15.138Z,2664.00
2022-11-24T09:50:15.139Z,2580.00
2022-11-24T09:51:15.139Z,2520.00
2022-11-24T09:52:15.139Z,2416.00
2022-11-24T09:53:15.146Z,2432.00
2022-11-24T09:54:15.176Z,2468.00
2022-11-24T09:55:15.151Z,2452.00
2022-11-24T09:56:15.161Z,2364.00
2022-11-24T09:57:15.166Z,2288.00
2022-11-24T09:58:15.161Z,2324.00
2022-11-24T09:59:15.174Z,2368.00
2022-11-24T10:00:15.166Z,2500.00
2022-11-24T10:01:15.256Z,2756.00
2022-11-24T10:02:15.181Z,3068.00
2022-11-24T10:03:15.191Z,3092.00
2022-11-24T10:04:15.228Z,3068.00
2022-11-24T10:05:15.186Z,3064.00
2022-11-24T10:06:15.198Z,2988.00
2022-11-24T10:07:15.293Z,2792.00
2022-11-24T10:08:15.198Z,2500.00
2022-11-24T10:09:15.201Z,2212.00
2022-11-24T10:10:19.766Z,1940.00
2022-11-24T10:11:15.207Z,1724.00
2022-11-24T10:12:15.225Z,1536.00
2022-11-24T10:13:15.216Z,1400.00
2022-11-24T10:14:15.226Z,1336.00
2022-11-24T10:15:15.221Z,1340.00
2022-11-24T10:16:15.295Z,1412.00
2022-11-24T10:17:15.226Z,1508.00
2022-11-24T10:18:17.250Z,1632.00
2022-11-24T10:19:15.233Z,1808.00
2022-11-24T10:20:15.235Z,1800.00
2022-11-24T10:21:15.250Z,1684.00
2022-11-24T10:22:15.249Z,1624.00
2022-11-24T10:23:15.249Z,1584.00
2022-11-24T10:24:15.259Z,1528.00
2022-11-24T10:25:15.264Z,1624.00
2022-11-24T10:26:15.282Z,1564.00
2022-11-24T10:27:15.259Z,1440.00
2022-11-24T10:28:15.272Z,1496.00
2022-11-24T10:29:15.273Z,1792.00
2022-11-24T10:30:15.274Z,2196.00
2022-11-24T10:31:15.331Z,2656.00
2022-11-24T10:32:15.285Z,3196.00
2022-11-24T10:33:15.286Z,3760.00
2022-11-24T10:34:15.283Z,4312.00
2022-11-24T10:35:15.294Z,4908.00
2022-11-24T10:36:15.294Z,5756.00
2022-11-24T10:37:15.295Z,6540.00
2022-11-24T10:38:15.298Z,6956.00
2022-11-24T10:39:15.299Z,6868.00
2022-11-24T10:40:33.461Z,6084.00
2022-11-24T10:41:15.306Z,5004.00
2022-11-24T10:42:15.341Z,4280.00
2022-11-24T10:43:15.316Z,3896.00
2022-11-24T10:44:15.319Z,3424.00
2022-11-24T10:45:15.329Z,2952.00
2022-11-24T10:46:15.385Z,2604.00
2022-11-24T10:47:15.337Z,2480.00
2022-11-24T10:48:15.342Z,2372.00
2022-11-24T10:49:15.342Z,2200.00
2022-11-24T10:50:15.350Z,2200.00
2022-11-24T10:51:15.345Z,2360.00
2022-11-24T10:52:15.346Z,2680.00
2022-11-24T10:53:15.353Z,3164.00
2022-11-24T10:54:15.354Z,3756.00
2022-11-24T10:55:15.366Z,4536.00
2022-11-24T10:56:15.369Z,5700.00
2022-11-24T10:57:15.369Z,6888.00
2022-11-24T10:58:15.409Z,7864.00
2022-11-24T10:59:15.381Z,8984.00
2022-11-24T11:00:15.472Z,10520.00
2022-11-24T11:01:15.539Z,12508.00
2022-11-24T11:02:15.455Z,14372.00
2022-11-24T11:03:15.389Z,13368.00
2022-11-24T11:04:15.413Z,12124.00
2022-11-24T11:05:15.398Z,11932.00
2022-11-24T11:06:15.404Z,20416.00
2022-11-24T11:07:15.513Z,17664.00
2022-11-24T11:08:15.418Z,12824.00
2022-11-24T11:20:17.819Z,17920.00
2022-11-24T11:21:17.793Z,19392.00
2022-11-24T11:22:17.807Z,32480.00
2022-11-24T11:23:17.811Z,23424.00
2022-11-24T11:24:17.818Z,33056.00
2022-11-24T11:25:17.814Z,30912.00
2022-11-24T11:26:17.832Z,24160.00
2022-11-24T11:27:17.828Z,29024.00
2022-11-24T11:28:18.585Z,36992.00
2022-11-24T11:31:20.690Z,27424.00
2022-11-24T11:34:25.079Z,34752.00
2022-11-24T11:36:00.451Z,32448.00
2022-11-24T11:37:00.449Z,33152.00
2022-11-24T11:38:03.068Z,36064.00
2022-11-24T11:41:26.310Z,31168.00
2022-11-24T12:00:57.085Z,7068.00
2022-11-24T12:01:57.065Z,7024.00
2022-11-24T12:02:57.210Z,7252.00
2022-11-24T12:03:57.294Z,7536.00
2022-11-24T12:04:57.078Z,7816.00
2022-11-24T12:05:57.094Z,8440.00
2022-11-24T12:06:57.105Z,8888.00
2022-11-24T12:07:57.199Z,11256.00
2022-11-24T12:09:19.340Z,11532.00
2022-11-24T12:09:57.116Z,19968.00
2022-11-24T12:10:57.129Z,22400.00
2022-11-24T12:11:57.136Z,21056.00
2022-11-24T12:12:57.137Z,20736.00
2022-11-24T12:13:57.150Z,20480.00
2022-11-24T12:14:57.159Z,19712.00
2022-11-24T12:15:57.208Z,18944.00
2022-11-24T12:16:57.199Z,18592.00
2022-11-24T12:17:57.174Z,18240.00
2022-11-24T12:18:58.466Z,17664.00
2022-11-24T12:19:57.189Z,16640.00
2022-11-24T12:20:57.199Z,15136.00
2022-11-24T12:21:57.212Z,13380.00
2022-11-24T12:22:57.222Z,11932.00
2022-11-24T12:23:57.220Z,10528.00
2022-11-24T12:24:57.275Z,9472.00
2022-11-24T12:25:57.241Z,8880.00
2022-11-24T12:26:57.245Z,8432.00
2022-11-24T12:27:57.263Z,8044.00
2022-11-24T12:28:57.265Z,7612.00
2022-11-24T12:29:57.278Z,7396.00
2022-11-24T12:30:57.326Z,7800.00
2022-11-24T12:31:57.282Z,7752.00
2022-11-24T12:32:57.314Z,7884.00
2022-11-24T12:34:01.113Z,7940.00
2022-11-24T12:34:57.304Z,7888.00
2022-11-24T12:35:57.312Z,7948.00
2022-11-24T12:36:57.319Z,7980.00
2022-11-24T12:37:57.328Z,7888.00
2022-11-24T12:38:57.335Z,7820.00
2022-11-24T12:39:57.349Z,7768.00
2022-11-24T12:41:18.332Z,7660.00
2022-11-24T12:41:57.365Z,7616.00
2022-11-24T12:42:57.372Z,7372.00
2022-11-24T12:43:57.369Z,6356.00
2022-11-24T12:44:57.387Z,5556.00
2022-11-24T12:45:57.383Z,5344.00
2022-11-24T12:46:57.468Z,5412.00
2022-11-24T12:47:57.401Z,5468.00
2022-11-24T12:48:57.436Z,5344.00
2022-11-24T12:49:57.419Z,5188.00
2022-11-24T12:50:57.421Z,5112.00
2022-11-24T12:51:57.426Z,5196.00
2022-11-24T12:52:59.049Z,5400.00
2022-11-24T12:53:57.445Z,5580.00
2022-11-24T12:54:57.447Z,5748.00
2022-11-24T12:55:57.452Z,5912.00
2022-11-24T12:56:57.467Z,6120.00
2022-11-24T12:57:57.465Z,6388.00
2022-11-24T12:58:57.472Z,6520.00
2022-11-24T12:59:57.488Z,6392.00
2022-11-24T13:00:57.487Z,6348.00
2022-11-24T13:01:57.617Z,6620.00
2022-11-24T13:02:57.625Z,6992.00
2022-11-24T13:03:57.516Z,7224.00
2022-11-24T13:04:57.532Z,7280.00
2022-11-24T13:05:57.525Z,6948.00
2022-11-24T13:06:57.531Z,6308.00
2022-11-24T13:07:57.708Z,5652.00
2022-11-24T13:08:57.546Z,5068.00
2022-11-24T13:09:57.545Z,4528.00
2022-11-24T13:10:58.138Z,4116.00
2022-11-24T13:12:02.147Z,3896.00
2022-11-24T13:12:57.562Z,3904.00
2022-11-24T13:13:57.569Z,4028.00
2022-11-24T13:14:57.575Z,4084.00
2022-11-24T13:16:28.466Z,4040.00
2022-11-24T13:18:08.636Z,3716.00
2022-11-24T13:18:57.688Z,3488.00
2022-11-24T13:19:57.613Z,3360.00